Time;durP1;ratioP1;P1;durP2;ratioP2;P2;SDS_P1;SDS_P2;PMS_P1;PMS_P2;Temp;Humidity;BMP_temperature;BMP_pressure;BME280_temperature;BME280_humidity;BME280_pressure;Samples;Min_cycle;Max_cycle;Signal;HPM_P1;HPM_P2
2022/06/29 00:00:20;;;;;;;8.02;3.97;;;;;;;21.61;47.37;101502.25;5037939;28;20128;-66
2022/06/29 00:02:47;;;;;;;7.07;4.35;;;;;;;21.60;47.79;101499.69;5048155;28;20225;-66
2022/06/29 00:05:17;;;;;;;4.40;3.90;;;;;;;21.57;47.69;101495.41;5050754;28;20141;-65
2022/06/29 00:07:45;;;;;;;6.70;4.45;;;;;;;21.55;47.69;101490.09;5045126;28;20068;-65
2022/06/29 00:10:13;;;;;;;5.45;3.85;;;;;;;21.51;48.00;101491.41;5033607;28;20041;-65
2022/06/29 00:12:44;;;;;;;5.43;4.85;;;;;;;21.49;47.85;101493.47;5036547;28;20057;-65
2022/06/29 00:15:13;;;;;;;7.90;4.75;;;;;;;21.47;47.88;101484.56;5054626;28;20057;-65
2022/06/29 00:17:40;;;;;;;5.97;4.75;;;;;;;21.45;47.94;101492.06;5051416;28;20052;-66
2022/06/29 00:20:10;;;;;;;7.30;4.88;;;;;;;21.43;48.29;101487.78;5054237;28;20045;-66
2022/06/29 00:22:41;;;;;;;8.38;4.80;;;;;;;21.41;48.23;101485.22;5054354;28;20494;-65
2022/06/29 00:25:10;;;;;;;8.07;4.75;;;;;;;21.39;48.16;101487.25;5044035;28;20112;-66
2022/06/29 00:27:37;;;;;;;8.50;5.28;;;;;;;21.39;48.13;101486.41;5051938;28;20069;-65
2022/06/29 00:30:05;;;;;;;6.45;5.10;;;;;;;21.38;48.12;101477.34;5038644;28;20052;-65
2022/06/29 00:32:36;;;;;;;6.68;4.78;;;;;;;21.36;48.37;101479.41;5053805;28;20072;-65
2022/06/29 00:35:03;;;;;;;6.20;4.85;;;;;;;21.33;48.28;101471.53;5053690;28;20053;-65
2022/06/29 00:37:29;;;;;;;7.57;4.78;;;;;;;21.29;48.66;101478.34;5045424;28;20103;-65
2022/06/29 00:39:56;;;;;;;8.23;5.32;;;;;;;21.24;48.72;101467.91;5049481;28;20037;-65
2022/06/29 00:42:27;;;;;;;8.10;5.32;;;;;;;21.23;48.45;101476.25;5054172;28;20037;-65
2022/06/29 00:44:54;;;;;;;6.75;4.88;;;;;;;21.22;48.52;101471.78;5041014;28;20121;-64
2022/06/29 00:47:22;;;;;;;10.23;5.57;;;;;;;21.21;48.86;101470.94;5035275;28;20030;-65
2022/06/29 00:49:49;;;;;;;6.57;5.28;;;;;;;21.19;48.76;101472.97;5039304;28;20048;-65
2022/06/29 00:52:22;;;;;;;6.25;4.78;;;;;;;21.18;48.61;101473.13;5053576;28;20033;-67
2022/06/29 00:54:54;;;;;;;5.65;5.15;;;;;;;21.16;48.55;101469.69;5052162;28;20064;-65
2022/06/29 00:57:27;;;;;;;5.55;5.03;;;;;;;21.12;48.87;101469.16;5054229;28;20040;-65
2022/06/29 00:59:57;;;;;;;7.68;4.95;;;;;;;21.10;48.67;101463.00;5051794;28;20045;-65
2022/06/29 01:02:49;;;;;;;5.88;4.95;;;;;;;21.05;48.82;101457.19;5037936;28;20042;-66
2022/06/29 01:05:16;;;;;;;5.82;5.20;;;;;;;21.04;48.71;101465.53;5047867;28;20053;-65
2022/06/29 01:07:44;;;;;;;7.78;5.18;;;;;;;21.01;48.92;101463.13;5055679;28;20033;-65
2022/06/29 01:10:10;;;;;;;5.18;4.68;;;;;;;20.97;49.01;101450.81;5055511;28;20036;-65
2022/06/29 01:12:52;;;;;;;6.15;4.70;;;;;;;20.93;48.70;101453.88;5055740;28;20041;-65
2022/06/29 01:15:19;;;;;;;6.25;4.85;;;;;;;20.89;48.70;101444.28;5054853;28;20048;-65
2022/06/29 01:17:46;;;;;;;10.95;4.97;;;;;;;20.87;48.85;101451.78;5054282;28;20040;-65
2022/06/29 01:20:14;;;;;;;6.60;4.85;;;;;;;20.84;49.05;101457.56;5038503;28;20048;-65
2022/06/29 01:22:44;;;;;;;6.63;4.93;;;;;;;20.84;49.13;101448.53;5033161;28;20033;-65
2022/06/29 01:25:10;;;;;;;5.75;5.03;;;;;;;20.82;48.97;101448.69;5044559;28;20033;-66
2022/06/29 01:27:37;;;;;;;7.68;5.07;;;;;;;20.81;49.04;101460.63;5033456;28;20038;-65
2022/06/29 01:30:07;;;;;;;5.50;5.00;;;;;;;20.79;49.43;101448.13;5046451;28;20037;-65
2022/06/29 01:32:38;;;;;;;6.70;5.07;;;;;;;20.78;49.57;101444.53;5038405;28;20488;-65
2022/06/29 01:35:10;;;;;;;5.80;5.25;;;;;;;20.76;49.44;101437.53;5033319;28;20064;-65
2022/06/29 01:37:39;;;;;;;8.60;5.53;;;;;;;20.74;49.47;101439.56;5044678;28;20029;-66
2022/06/29 01:40:07;;;;;;;6.28;5.07;;;;;;;20.72;49.26;101437.00;5034219;28;20049;-66
2022/06/29 01:42:35;;;;;;;6.40;5.25;;;;;;;20.71;49.32;101442.59;5031987;28;20515;-66
2022/06/29 01:45:03;;;;;;;6.57;5.32;;;;;;;20.68;49.48;101448.38;5033240;28;20045;-65
2022/06/29 01:47:29;;;;;;;6.90;5.40;;;;;;;20.65;49.46;101438.66;5051918;28;20087;-66
2022/06/29 01:49:56;;;;;;;8.02;5.75;;;;;;;20.64;49.39;101442.41;5052906;28;20132;-65
2022/06/29 01:52:31;;;;;;;6.90;5.15;;;;;;;20.62;49.44;101433.50;5047922;28;20044;-66
2022/06/29 01:54:58;;;;;;;5.90;5.40;;;;;;;20.62;49.40;101436.25;5052168;28;20059;-65
2022/06/29 01:57:25;;;;;;;7.65;5.57;;;;;;;20.61;49.83;101437.25;5051790;28;20045;-65
2022/06/29 01:59:51;;;;;;;6.00;5.32;;;;;;;20.58;49.75;101435.69;5051111;28;20133;-65
2022/06/29 02:02:22;;;;;;;7.40;5.50;;;;;;;20.56;49.73;101426.81;5052429;28;20060;-66
2022/06/29 02:04:48;;;;;;;7.18;5.68;;;;;;;20.54;49.57;101425.25;5043483;28;20495;-66
2022/06/29 02:07:15;;;;;;;8.68;5.60;;;;;;;20.54;49.84;101428.00;5037080;28;20042;-65
2022/06/29 02:09:42;;;;;;;5.50;5.05;;;;;;;20.52;49.93;101421.84;5049188;28;20119;-65
2022/06/29 02:12:13;;;;;;;5.82;5.20;;;;;;;20.51;49.90;101422.84;5032413;28;20046;-65
2022/06/29 02:15:04;;;;;;;7.60;5.45;;;;;;;20.51;49.90;101425.59;5011254;28;20486;-66
2022/06/29 02:17:30;;;;;;;5.85;5.25;;;;;;;20.50;49.78;101426.59;5040041;28;20041;-65
2022/06/29 02:19:57;;;;;;;5.30;4.85;;;;;;;20.47;49.80;101424.19;5045963;28;20170;-65
2022/06/29 02:22:25;;;;;;;6.30;5.70;;;;;;;20.47;50.19;101424.19;5051123;28;20115;-66
2022/06/29 02:24:52;;;;;;;8.52;5.55;;;;;;;20.45;49.84;101421.63;5035105;28;20077;-66
2022/06/29 02:27:18;;;;;;;5.72;5.20;;;;;;;20.44;49.85;101424.50;5051999;28;20064;-66
2022/06/29 02:29:45;;;;;;;7.82;5.05;;;;;;;20.43;50.08;101417.34;5052172;28;20136;-65
2022/06/29 02:34:57;;;;;;;10.75;5.80;;;;;;;20.42;50.14;101415.63;5040819;28;20045;-65
2022/06/29 02:37:24;;;;;;;6.00;5.50;;;;;;;20.38;49.63;101401.41;5035527;28;20033;-65
2022/06/29 02:39:54;;;;;;;5.72;5.22;;;;;;;20.35;49.67;101407.19;5031856;28;20044;-65
2022/06/29 02:42:26;;;;;;;6.47;4.80;;;;;;;20.35;50.22;101406.34;5030937;28;20037;-65
2022/06/29 02:45:13;;;;;;;6.10;5.30;;;;;;;20.36;50.08;101406.19;5046495;28;20141;-65
2022/06/29 02:47:47;;;;;;;6.47;5.10;;;;;;;20.35;49.82;101409.06;5044427;28;20412;-65
2022/06/29 02:50:13;;;;;;;5.63;5.10;;;;;;;20.35;50.29;101400.88;5051196;28;20041;-65
2022/06/29 02:52:43;;;;;;;5.55;5.05;;;;;;;20.32;50.26;101412.97;5051840;28;20051;-64
2022/06/29 02:55:09;;;;;;;5.88;5.20;;;;;;;20.28;49.98;101406.97;5037728;28;20037;-65
2022/06/29 02:57:36;;;;;;;6.00;5.43;;;;;;;20.27;50.24;101413.44;5032165;28;20068;-65
2022/06/29 03:00:03;;;;;;;5.82;5.30;;;;;;;20.26;50.31;101402.69;5032820;28;20159;-65
2022/06/29 03:02:31;;;;;;;8.60;5.13;;;;;;;20.23;50.13;101406.59;5035806;28;20041;-65
2022/06/29 03:04:59;;;;;;;5.95;5.15;;;;;;;20.23;50.49;101405.72;5051869;28;20045;-65
2022/06/29 03:07:26;;;;;;;5.63;5.00;;;;;;;20.21;50.49;101403.16;5043812;28;20130;-65
2022/06/29 03:09:53;;;;;;;5.72;5.13;;;;;;;20.19;50.24;101405.19;5031449;28;20103;-64
2022/06/29 03:12:21;;;;;;;8.68;5.18;;;;;;;20.17;50.46;101396.31;5036878;28;20055;-65
2022/06/29 03:14:48;;;;;;;7.20;5.47;;;;;;;20.16;50.36;101399.19;5050746;28;20065;-65
2022/06/29 03:17:15;;;;;;;6.82;5.38;;;;;;;20.15;50.67;101383.84;5041660;28;20037;-65
2022/06/29 03:19:42;;;;;;;6.90;5.22;;;;;;;20.15;50.59;101398.34;5032545;28;20041;-65
2022/06/29 03:22:08;;;;;;;8.07;5.53;;;;;;;20.14;50.71;101390.31;5031316;28;20042;-65
2022/06/29 03:24:35;;;;;;;5.82;5.25;;;;;;;20.11;50.82;101386.03;5040121;28;20047;-66
2022/06/29 03:27:02;;;;;;;5.93;5.32;;;;;;;20.08;51.03;101380.91;5050999;28;20049;-65
2022/06/29 03:29:29;;;;;;;6.15;5.38;;;;;;;20.09;50.90;101382.59;5034218;28;20304;-65
2022/06/29 03:31:55;;;;;;;7.25;6.05;;;;;;;20.09;51.07;101381.75;5036197;28;20088;-65
2022/06/29 03:34:22;;;;;;;7.80;5.38;;;;;;;20.07;50.70;101379.19;5029879;28;20046;-65
2022/06/29 03:36:49;;;;;;;6.00;5.40;;;;;;;20.08;51.15;101377.31;5043942;28;20433;-66
2022/06/29 03:39:15;;;;;;;6.18;5.57;;;;;;;20.06;51.09;101374.72;5041114;28;20453;-66
2022/06/29 03:41:42;;;;;;;6.32;5.68;;;;;;;20.06;50.90;101366.53;5030991;28;20036;-65
2022/06/29 03:44:09;;;;;;;6.05;5.45;;;;;;;20.05;50.99;101361.25;5034348;28;20049;-65
2022/06/29 03:46:36;;;;;;;9.20;5.70;;;;;;;20.01;50.53;101366.16;5038765;28;20037;-65
2022/06/29 03:49:03;;;;;;;6.38;5.38;;;;;;;19.98;51.12;101366.47;5037734;28;20045;-64
2022/06/29 03:51:29;;;;;;;6.07;5.57;;;;;;;19.95;50.59;101369.50;5037449;28;20067;-65
2022/06/29 03:53:56;;;;;;;6.72;6.13;;;;;;;19.93;50.98;101371.53;5037604;28;20045;-64
2022/06/29 03:56:23;;;;;;;5.93;5.43;;;;;;;19.93;50.80;101371.53;5037674;28;20120;-64
2022/06/29 03:58:49;;;;;;;6.40;5.70;;;;;;;19.93;51.12;101374.25;5036197;28;20377;-65
2022/06/29 04:01:16;;;;;;;6.22;5.72;;;;;;;19.92;51.39;101372.53;5037525;28;20068;-65
2022/06/29 04:03:47;;;;;;;7.00;6.30;;;;;;;19.92;51.26;101365.22;5036164;28;20092;-65
2022/06/29 04:06:14;;;;;;;8.07;6.55;;;;;;;19.92;50.99;101364.38;5037222;28;20057;-65
2022/06/29 04:08:41;;;;;;;7.38;6.55;;;;;;;19.92;51.63;101359.78;5037516;28;20038;-65
2022/06/29 04:11:48;;;;;;;7.30;6.70;;;;;;;19.91;51.56;101355.34;5037385;28;20127;-65
2022/06/29 04:13:54;;;;;;;7.75;6.95;;;;;;;19.93;51.41;101360.63;5051584;28;20132;-65
2022/06/29 04:16:21;;;;;;;8.52;6.43;;;;;;;19.92;51.30;101370.69;5057342;28;20032;-65
2022/06/29 04:18:48;;;;;;;8.88;6.80;;;;;;;19.91;51.68;101374.41;5057895;28;20147;-65
2022/06/29 04:21:15;;;;;;;9.10;7.30;;;;;;;19.91;51.71;101362.66;5057558;28;20037;-66
2022/06/29 04:23:42;;;;;;;7.82;7.07;;;;;;;19.92;51.31;101362.50;5057364;28;20049;-66
2022/06/29 04:26:09;;;;;;;8.30;7.00;;;;;;;19.93;51.84;101366.06;5057347;28;20036;-66
2022/06/29 04:28:45;;;;;;;8.18;7.28;;;;;;;19.91;51.71;101363.50;5037658;28;20069;-68
2022/06/29 04:31:11;;;;;;;7.82;7.13;;;;;;;19.91;51.54;101366.25;5037337;28;20068;-66
2022/06/29 04:33:38;;;;;;;7.50;6.90;;;;;;;19.88;51.79;101358.38;5037098;28;20045;-66
2022/06/29 04:36:05;;;;;;;8.60;7.80;;;;;;;19.88;52.11;101361.09;5037429;28;20072;-65
2022/06/29 04:38:31;;;;;;;6.95;6.22;;;;;;;19.88;51.97;101358.38;5044215;28;20036;-66
2022/06/29 04:40:59;;;;;;;10.13;8.13;;;;;;;19.88;52.10;101349.34;5052843;28;20056;-66
2022/06/29 04:43:29;;;;;;;10.05;7.65;;;;;;;19.88;51.87;101344.75;5036970;28;20037;-66
2022/06/29 04:48:43;;;;;;;8.30;7.35;;;;;;;19.89;52.05;101345.59;5034738;28;20034;-65
2022/06/29 04:51:09;;;;;;;9.48;8.50;;;;;;;19.90;52.29;101340.00;5036684;28;20045;-65
2022/06/29 04:53:39;;;;;;;8.98;8.10;;;;;;;19.90;52.46;101350.91;5035543;28;20034;-65
2022/06/29 04:56:06;;;;;;;7.60;6.90;;;;;;;19.92;52.55;101354.31;5034215;28;20049;-65
2022/06/29 04:58:32;;;;;;;8.82;7.60;;;;;;;19.95;52.50;101350.41;5034062;28;20465;-65
2022/06/29 05:00:59;;;;;;;10.15;7.50;;;;;;;19.96;52.89;101338.50;5033525;28;20124;-65
2022/06/29 05:03:26;;;;;;;10.45;8.07;;;;;;;19.99;52.99;101347.22;5033524;28;20373;-66
2022/06/29 05:05:53;;;;;;;8.30;7.50;;;;;;;20.03;52.78;101342.31;5033212;28;20491;-66
2022/06/29 05:08:19;;;;;;;8.45;7.53;;;;;;;20.08;52.83;101341.88;5032372;28;20045;-66
2022/06/29 05:10:46;;;;;;;12.68;8.02;;;;;;;20.10;53.26;101334.38;5033991;28;20054;-66
2022/06/29 05:13:14;;;;;;;9.98;7.25;;;;;;;20.14;53.26;101343.97;5033328;28;20033;-65
2022/06/29 05:15:40;;;;;;;9.82;7.93;;;;;;;20.18;53.15;101337.16;5033230;28;20064;-66
2022/06/29 05:18:07;;;;;;;8.15;7.40;;;;;;;20.22;52.89;101333.09;5033261;28;20502;-66
2022/06/29 05:20:34;;;;;;;10.65;7.35;;;;;;;20.27;52.89;101330.75;5033055;28;20077;-65
2022/06/29 05:23:05;;;;;;;8.18;7.13;;;;;;;20.31;53.05;101346.63;5033816;28;20042;-66
2022/06/29 05:25:32;;;;;;;10.80;7.50;;;;;;;20.37;52.95;101352.47;5031495;28;20050;-66
2022/06/29 05:27:59;;;;;;;11.85;7.88;;;;;;;20.41;53.46;101346.56;5032960;28;20034;-66
2022/06/29 05:30:25;;;;;;;9.15;8.25;;;;;;;20.47;53.46;101350.53;5032917;28;20113;-65
2022/06/29 05:32:53;;;;;;;9.13;7.65;;;;;;;20.51;53.57;101354.63;5033032;28;20384;-66
2022/06/29 05:35:19;;;;;;;7.93;7.15;;;;;;;20.54;53.11;101336.06;5032721;28;20096;-65
2022/06/29 05:37:46;;;;;;;8.20;7.40;;;;;;;20.59;53.60;101343.78;5033106;28;20108;-66
2022/06/29 05:40:13;;;;;;;8.55;7.65;;;;;;;20.65;53.51;101342.28;5032886;28;20041;-65
2022/06/29 05:42:41;;;;;;;11.68;7.05;;;;;;;20.71;53.37;101334.28;5032819;28;20061;-65
2022/06/29 05:45:08;;;;;;;8.23;7.25;;;;;;;20.78;53.12;101335.34;5039679;28;20112;-65
2022/06/29 05:47:34;;;;;;;11.23;7.38;;;;;;;20.87;53.45;101333.53;5032734;28;20038;-65
2022/06/29 05:50:01;;;;;;;8.55;7.32;;;;;;;20.94;52.97;101332.72;5032701;28;20470;-66
2022/06/29 05:52:29;;;;;;;6.85;6.15;;;;;;;21.04;53.24;101340.78;5032437;28;20099;-66
2022/06/29 05:54:57;;;;;;;9.00;7.15;;;;;;;21.14;52.78;101333.28;5032713;28;20147;-66
2022/06/29 05:57:27;;;;;;;8.02;7.32;;;;;;;21.28;52.84;101337.28;5032911;28;20034;-68
2022/06/29 05:59:53;;;;;;;8.68;6.90;;;;;;;21.40;53.06;101338.69;5030089;28;20045;-68
2022/06/29 06:02:24;;;;;;;8.55;6.90;;;;;;;21.53;52.46;101336.31;5032581;28;20037;-69
2022/06/29 06:04:50;;;;;;;8.38;6.88;;;;;;;21.65;52.72;101334.16;5031993;28;20052;-67
2022/06/29 06:07:17;;;;;;;8.27;6.07;;;;;;;21.81;52.48;101341.50;5031804;28;20033;-68
2022/06/29 06:09:44;;;;;;;9.23;6.55;;;;;;;21.95;52.39;101335.34;5034675;28;20042;-68
2022/06/29 06:12:11;;;;;;;9.52;6.32;;;;;;;22.11;52.34;101340.00;5032040;28;20399;-68
2022/06/29 06:14:38;;;;;;;8.60;5.80;;;;;;;22.30;52.20;101339.66;5032187;28;20056;-69
2022/06/29 06:17:05;;;;;;;6.07;5.47;;;;;;;22.48;52.07;101336.72;5032985;28;20090;-68
2022/06/29 06:19:31;;;;;;;8.80;6.07;;;;;;;22.68;51.90;101342.66;5031348;28;20041;-68
2022/06/29 06:21:58;;;;;;;7.90;5.47;;;;;;;22.92;51.91;101336.25;5032034;28;20068;-68
2022/06/29 06:24:25;;;;;;;7.65;5.88;;;;;;;23.14;51.05;101347.31;5032338;28;20049;-69
2022/06/29 06:26:52;;;;;;;6.68;5.82;;;;;;;23.27;50.98;101341.25;5033351;28;20132;-68
2022/06/29 06:29:18;;;;;;;7.00;5.22;;;;;;;23.41;51.02;101342.38;5031863;28;20045;-68
2022/06/29 06:31:46;;;;;;;5.47;4.97;;;;;;;23.54;50.93;101345.38;5029322;28;20124;-68
2022/06/29 06:34:13;;;;;;;8.68;5.65;;;;;;;23.69;50.66;101340.00;5032278;28;20117;-68
2022/06/29 06:36:40;;;;;;;7.28;5.15;;;;;;;23.83;50.50;101332.88;5031977;28;20104;-68
2022/06/29 06:39:07;;;;;;;7.25;5.45;;;;;;;23.95;50.32;101329.53;5032266;28;20037;-68
2022/06/29 06:41:33;;;;;;;7.85;5.53;;;;;;;24.08;50.17;101335.22;5043446;28;20076;-70
2022/06/29 06:44:02;;;;;;;6.88;4.30;;;;;;;24.24;49.83;101336.13;5051805;28;20124;-70
2022/06/29 06:46:29;;;;;;;6.78;5.15;;;;;;;24.46;49.63;101334.38;5051738;28;20499;-70
2022/06/29 06:48:56;;;;;;;6.00;4.43;;;;;;;24.64;49.51;101327.50;5047049;28;20041;-70
2022/06/29 06:51:23;;;;;;;7.05;5.03;;;;;;;24.77;48.93;101324.09;5051905;28;20037;-70
2022/06/29 06:53:51;;;;;;;5.90;5.30;;;;;;;24.92;48.76;101329.59;5051721;28;20402;-70
2022/06/29 06:56:18;;;;;;;7.38;5.25;;;;;;;25.08;48.49;101336.78;5050559;28;20049;-69
2022/06/29 06:58:45;;;;;;;5.80;4.88;;;;;;;25.21;48.17;101324.06;5049969;28;20127;-69
2022/06/29 07:01:19;;;;;;;7.93;4.90;;;;;;;25.37;48.15;101316.66;5051664;28;20041;-69
2022/06/29 07:03:46;;;;;;;5.32;4.82;;;;;;;25.53;47.96;101321.91;5051466;28;20041;-69
2022/06/29 07:06:13;;;;;;;8.00;5.20;;;;;;;25.65;47.40;101317.59;5051630;28;20144;-70
2022/06/29 07:08:40;;;;;;;8.73;5.22;;;;;;;25.78;47.19;101317.75;5049956;28;20044;-70
2022/06/29 07:11:07;;;;;;;8.05;5.38;;;;;;;25.93;47.07;101324.03;5051371;28;20048;-70
2022/06/29 07:13:36;;;;;;;5.50;4.72;;;;;;;26.14;46.81;101316.81;5046101;28;20029;-70
2022/06/29 07:16:04;;;;;;;6.07;5.00;;;;;;;26.32;46.53;101317.19;5031215;28;20095;-69
2022/06/29 07:18:32;;;;;;;6.82;5.38;;;;;;;26.50;46.45;101320.31;5031100;28;20041;-70
2022/06/29 07:21:00;;;;;;;5.55;4.90;;;;;;;26.67;46.26;101318.06;5031298;28;20037;-70
2022/06/29 07:23:30;;;;;;;8.02;5.45;;;;;;;26.78;46.02;101312.03;5033546;28;20046;-69
2022/06/29 07:25:57;;;;;;;6.70;5.22;;;;;;;26.89;45.84;101318.84;5046644;28;20441;-68
2022/06/29 07:28:24;;;;;;;9.38;5.03;;;;;;;26.99;45.59;101307.47;5047963;28;20041;-68
2022/06/29 07:30:51;;;;;;;7.25;5.55;;;;;;;27.10;45.64;101313.25;5030602;28;20040;-70
2022/06/29 07:33:19;;;;;;;10.15;5.55;;;;;;;27.28;45.24;101303.56;5031356;28;20171;-69
2022/06/29 07:35:46;;;;;;;6.57;4.65;;;;;;;27.39;44.87;101314.84;5030899;28;20128;-68
2022/06/29 07:38:12;;;;;;;7.32;4.72;;;;;;;27.50;44.70;101314.25;5031303;28;20114;-68
2022/06/29 07:40:39;;;;;;;5.95;4.53;;;;;;;27.66;44.47;101314.97;5031241;28;20041;-68
2022/06/29 07:43:07;;;;;;;4.90;4.00;;;;;;;27.78;44.07;101302.22;5030003;28;20199;-68
2022/06/29 07:45:34;;;;;;;5.00;3.88;;;;;;;27.94;43.60;101306.47;5031299;28;20052;-68
2022/06/29 07:48:01;;;;;;;6.97;4.63;;;;;;;28.02;43.56;101314.56;5029892;28;20045;-68
2022/06/29 07:50:29;;;;;;;6.90;4.90;;;;;;;28.02;43.37;101301.59;5031328;28;20045;-68
2022/06/29 07:52:57;;;;;;;7.38;4.88;;;;;;;28.03;43.19;101310.72;5031209;28;20037;-68
2022/06/29 07:55:24;;;;;;;6.45;4.80;;;;;;;28.07;43.23;101301.81;5030951;28;20052;-68
2022/06/29 07:57:52;;;;;;;9.13;5.50;;;;;;;28.17;43.37;101312.44;5031183;28;20053;-68
2022/06/29 08:00:19;;;;;;;5.53;4.90;;;;;;;28.27;43.09;101306.53;5031468;28;20053;-68
2022/06/29 08:02:48;;;;;;;6.40;5.00;;;;;;;28.38;42.90;101308.66;5031021;28;20061;-68
2022/06/29 08:05:15;;;;;;;7.63;4.95;;;;;;;28.52;42.77;101303.94;5030997;28;20491;-68
2022/06/29 08:07:41;;;;;;;6.57;5.72;;;;;;;28.60;42.35;101310.09;5030913;28;20047;-68
2022/06/29 08:10:08;;;;;;;10.25;5.50;;;;;;;28.68;42.51;101318.16;5031249;28;20038;-68
2022/06/29 08:12:38;;;;;;;7.07;4.65;;;;;;;28.82;42.16;101309.81;5031134;28;20038;-68
2022/06/29 08:15:05;;;;;;;7.50;4.60;;;;;;;28.96;42.01;101317.03;5031022;28;20046;-71
2022/06/29 08:17:32;;;;;;;7.22;4.80;;;;;;;29.09;41.60;101311.47;5044356;28;20395;-69
2022/06/29 08:20:02;;;;;;;5.78;4.55;;;;;;;29.22;41.31;101307.78;5035200;28;20057;-69
2022/06/29 08:22:30;;;;;;;6.47;4.47;;;;;;;29.32;40.90;101305.41;5031095;28;20044;-69
2022/06/29 08:24:56;;;;;;;6.10;4.13;;;;;;;29.49;40.77;101306.59;5030796;28;20042;-69
2022/06/29 08:27:23;;;;;;;6.82;5.18;;;;;;;29.66;40.70;101304.16;5030701;28;20059;-69
2022/06/29 08:30:11;;;;;;;7.30;5.47;;;;;;;29.77;40.51;101306.22;5038373;28;20051;-69
2022/06/29 08:32:40;;;;;;;6.70;5.18;;;;;;;29.85;40.33;101294.88;5045878;28;20445;-69
2022/06/29 08:35:07;;;;;;;7.18;4.93;;;;;;;29.92;40.07;101290.13;5031614;28;20433;-69
2022/06/29 08:37:36;;;;;;;5.63;4.50;;;;;;;29.99;39.42;101292.84;5034032;28;20103;-69
2022/06/29 08:40:06;;;;;;;7.13;5.65;;;;;;;30.06;39.15;101285.34;5046339;28;20549;-69
2022/06/29 08:42:36;;;;;;;6.22;5.28;;;;;;;30.14;38.97;101285.06;5054127;28;20086;-68
2022/06/29 08:45:04;;;;;;;6.18;4.85;;;;;;;30.26;38.51;101291.56;5054032;28;20045;-69
2022/06/29 08:47:31;;;;;;;7.60;5.93;;;;;;;30.36;38.13;101296.56;5053587;28;20116;-69
2022/06/29 08:49:58;;;;;;;8.10;5.45;;;;;;;30.46;38.22;101291.34;5053870;28;20041;-69
2022/06/29 08:52:29;;;;;;;6.95;5.75;;;;;;;30.56;38.04;101297.25;5053994;28;20045;-69
2022/06/29 08:54:57;;;;;;;14.10;6.20;;;;;;;30.59;37.52;101293.19;5053808;28;20148;-69
2022/06/29 08:57:25;;;;;;;6.78;5.38;;;;;;;30.62;37.70;101284.41;5053585;28;20041;-69
2022/06/29 08:59:53;;;;;;;6.95;4.82;;;;;;;30.74;37.57;101288.13;5053558;28;20391;-69
2022/06/29 09:02:30;;;;;;;8.05;3.97;;;;;;;30.88;37.49;101286.03;5052444;28;20041;-69
2022/06/29 09:04:57;;;;;;;7.53;4.85;;;;;;;30.98;36.83;101289.94;5052753;28;20438;-69
2022/06/29 09:07:25;;;;;;;4.13;3.08;;;;;;;31.05;36.95;101281.53;5050370;28;20117;-69
2022/06/29 09:10:07;;;;;;;5.55;3.60;;;;;;;31.17;37.03;101289.94;5033673;28;20052;-69
2022/06/29 09:12:35;;;;;;;7.13;4.72;;;;;;;31.23;36.29;101284.34;5033585;28;20041;-69
2022/06/29 09:15:05;;;;;;;5.78;4.40;;;;;;;31.23;36.72;101291.81;5034341;28;20533;-68
2022/06/29 09:17:33;;;;;;;8.48;4.22;;;;;;;31.22;36.57;101281.78;5033365;28;20040;-69
2022/06/29 09:20:01;;;;;;;6.10;4.47;;;;;;;31.28;36.44;101280.84;5033432;28;20074;-69
2022/06/29 09:22:55;;;;;;;4.72;4.22;;;;;;;31.42;36.31;101276.81;5033733;28;20049;-68
2022/06/29 09:25:27;;;;;;;4.90;4.35;;;;;;;31.49;36.25;101282.25;5033334;28;20062;-69
2022/06/29 09:27:55;;;;;;;6.53;4.53;;;;;;;31.54;35.83;101279.63;5033087;28;20128;-69
2022/06/29 09:30:27;;;;;;;6.95;4.93;;;;;;;31.55;35.16;101284.09;5033183;28;20055;-68
2022/06/29 09:33:01;;;;;;;7.03;4.10;;;;;;;31.51;35.50;101280.94;5033414;28;20046;-69
2022/06/29 09:35:28;;;;;;;5.40;3.90;;;;;;;31.52;35.78;101281.78;5032925;28;20120;-68
2022/06/29 09:38:21;;;;;;;5.40;3.72;;;;;;;31.52;35.81;101279.00;5033335;28;20041;-69
2022/06/29 09:40:58;;;;;;;7.43;3.30;;;;;;;31.48;35.80;101281.41;5033207;28;20056;-68
2022/06/29 09:43:31;;;;;;;5.35;3.05;;;;;;;31.40;35.57;101281.75;5032316;28;20048;-68
2022/06/29 09:45:58;;;;;;;4.80;3.20;;;;;;;31.36;36.20;101283.31;5031549;28;20046;-68
2022/06/29 09:48:26;;;;;;;5.50;3.67;;;;;;;31.33;36.18;101277.38;5033875;28;20034;-68
2022/06/29 09:50:54;;;;;;;5.18;4.05;;;;;;;31.31;36.08;101279.53;5031538;28;20046;-69
2022/06/29 09:53:41;;;;;;;7.47;4.60;;;;;;;31.27;36.10;101288.34;5033061;28;20052;-68
2022/06/29 09:56:14;;;;;;;5.60;3.90;;;;;;;31.27;36.42;101285.56;5032794;28;20407;-69
2022/06/29 09:58:52;;;;;;;5.18;3.60;;;;;;;31.28;36.49;101290.03;5032576;28;20042;-69
2022/06/29 10:04:19;;;;;;;5.78;3.42;;;;;;;31.35;35.98;101280.75;5032611;28;20151;-69
2022/06/29 10:06:46;;;;;;;5.55;2.80;;;;;;;31.35;35.63;101292.72;5032863;28;20045;-69
2022/06/29 10:09:13;;;;;;;4.22;2.70;;;;;;;31.35;35.58;101286.31;5050648;28;20127;-69
2022/06/29 10:15:09;;;;;;;4.25;2.97;;;;;;;31.37;35.61;101284.16;5052702;28;20088;-69
2022/06/29 10:17:52;;;;;;;7.88;3.38;;;;;;;31.46;35.43;101279.94;5052146;28;20045;-71
2022/06/29 10:20:30;;;;;;;9.70;3.42;;;;;;;31.60;35.54;101282.28;5052311;28;20091;-70
2022/06/29 10:23:01;;;;;;;7.15;2.95;;;;;;;31.76;35.03;101278.00;5052228;28;20075;-71
2022/06/29 10:25:28;;;;;;;8.63;2.97;;;;;;;31.89;35.44;101279.72;5052143;28;20033;-70
2022/06/29 10:28:19;;;;;;;5.97;2.10;;;;;;;32.03;35.04;101274.81;5050063;28;20094;-71
2022/06/29 10:30:46;;;;;;;5.32;2.28;;;;;;;32.16;34.68;101269.03;5050658;28;20337;-72
2022/06/29 10:33:35;;;;;;;2.85;2.15;;;;;;;32.24;33.99;101263.13;5051952;28;20045;-71
2022/06/29 10:38:54;;;;;;;4.95;1.92;;;;;;;32.41;33.12;101260.47;5051742;28;20083;-71
2022/06/29 10:44:08;;;;;;;3.67;2.00;;;;;;;32.64;33.26;101254.00;5032067;28;20037;-71
2022/06/29 10:46:58;;;;;;;5.45;2.30;;;;;;;32.72;32.88;101250.88;5033565;28;20046;-72
2022/06/29 10:49:25;;;;;;;3.13;1.60;;;;;;;32.84;33.07;101246.16;5051674;28;20076;-71
2022/06/29 10:51:53;;;;;;;2.70;2.10;;;;;;;32.94;32.33;101245.53;5051595;28;20128;-72
2022/06/29 10:54:31;;;;;;;6.53;2.00;;;;;;;33.00;32.20;101250.94;5051792;28;20487;-72
2022/06/29 10:56:59;;;;;;;5.68;2.17;;;;;;;33.07;31.96;101248.00;5049963;28;20040;-72
2022/06/29 10:59:36;;;;;;;5.20;2.08;;;;;;;33.11;31.78;101249.22;5050137;28;20052;-72
2022/06/29 11:02:07;;;;;;;4.72;1.98;;;;;;;33.16;31.53;101243.75;5046946;28;20036;-71
2022/06/29 11:04:34;;;;;;;3.03;1.50;;;;;;;33.20;31.41;101238.53;5051299;28;20056;-71
2022/06/29 11:12:51;;;;;;;4.72;2.05;;;;;;;33.40;31.39;101223.06;5051299;28;20060;-71
2022/06/29 11:15:48;;;;;;;3.63;1.50;;;;;;;33.54;31.29;101225.56;5049189;28;20041;-72
2022/06/29 11:18:19;;;;;;;3.35;1.40;;;;;;;33.66;31.05;101220.75;5051191;28;20120;-69
2022/06/29 11:20:51;;;;;;;2.78;1.20;;;;;;;33.68;30.60;101216.63;5051282;28;20045;-70
2022/06/29 11:23:27;;;;;;;1.80;1.20;;;;;;;33.72;30.59;101214.16;5051133;28;20116;-70
2022/06/29 11:25:56;;;;;;;4.43;1.30;;;;;;;33.74;30.32;101214.75;5036141;28;20049;-71
2022/06/29 11:28:29;;;;;;;2.40;1.08;;;;;;;33.79;29.69;101212.06;5030923;28;20045;-71
2022/06/29 11:31:04;;;;;;;1.73;1.00;;;;;;;33.84;29.80;101219.69;5031180;28;20065;-72
2022/06/29 11:33:42;;;;;;;2.55;1.65;;;;;;;33.86;30.08;101206.34;5050755;28;20041;-71
2022/06/29 11:36:32;;;;;;;1.95;1.02;;;;;;;33.91;29.60;101214.78;5050814;28;20053;-71
2022/06/29 11:39:06;;;;;;;1.30;1.10;;;;;;;33.96;29.74;101207.34;5050928;28;20036;-71
2022/06/29 11:44:30;;;;;;;1.63;1.00;;;;;;;34.01;28.82;101193.47;5051445;28;20110;-71
2022/06/29 11:46:57;;;;;;;2.50;1.35;;;;;;;34.04;29.26;101194.91;5050972;28;20045;-71
2022/06/29 11:49:42;;;;;;;2.10;1.30;;;;;;;34.09;28.66;101195.84;5050603;28;20045;-71
2022/06/29 11:52:13;;;;;;;2.13;1.15;;;;;;;34.19;28.94;101197.06;5051175;28;20048;-71
2022/06/29 11:55:00;;;;;;;1.50;1.30;;;;;;;34.27;28.33;101193.88;5050748;28;20056;-72
2022/06/29 11:57:27;;;;;;;2.10;1.50;;;;;;;34.37;28.56;101188.47;5050830;28;20057;-71
2022/06/29 12:00:07;;;;;;;2.13;1.10;;;;;;;34.47;28.40;101179.41;5050533;28;20044;-72